createdAt,value
2023-04-09T00:00:18.033Z,81.30
2023-04-09T00:02:45.450Z,81.30
2023-04-09T00:05:13.960Z,82.10
2023-04-09T00:07:42.182Z,81.30
2023-04-09T00:10:11.200Z,81.20
2023-04-09T00:12:38.400Z,81.40
2023-04-09T00:15:06.416Z,81.00
2023-04-09T00:17:33.668Z,81.10
2023-04-09T00:20:01.178Z,81.20
2023-04-09T00:22:28.351Z,81.40
2023-04-09T00:24:55.613Z,81.50
2023-04-09T00:27:23.200Z,81.40
2023-04-09T00:29:50.415Z,81.50
2023-04-09T00:32:17.574Z,81.30
2023-04-09T00:34:44.857Z,81.30
2023-04-09T00:37:12.035Z,81.20
2023-04-09T00:39:39.202Z,81.20
2023-04-09T00:42:06.347Z,81.20
2023-04-09T00:44:33.584Z,81.40
2023-04-09T00:47:01.182Z,81.40
2023-04-09T00:49:28.616Z,81.50
2023-04-09T00:51:56.032Z,81.50
2023-04-09T00:54:23.576Z,81.60
2023-04-09T00:56:51.172Z,81.20
2023-04-09T00:59:19.109Z,81.30
2023-04-09T01:01:46.379Z,81.50
2023-04-09T01:04:13.752Z,81.50
2023-04-09T01:06:51.439Z,81.40
2023-04-09T01:09:28.529Z,81.40
2023-04-09T01:12:19.731Z,81.30
2023-04-09T01:15:07.154Z,81.50
2023-04-09T01:17:56.562Z,81.50
2023-04-09T01:20:30.931Z,81.60
2023-04-09T01:23:10.881Z,81.70
2023-04-09T01:25:53.815Z,81.60
2023-04-09T01:28:31.310Z,81.60
2023-04-09T01:31:02.724Z,82.50
2023-04-09T01:33:31.602Z,81.50
2023-04-09T01:36:00.504Z,81.60
2023-04-09T01:38:28.934Z,81.60
2023-04-09T01:40:57.394Z,81.30
2023-04-09T01:43:26.035Z,81.40
2023-04-09T01:45:54.534Z,81.50
2023-04-09T01:48:23.562Z,81.40
2023-04-09T01:50:51.576Z,81.30
2023-04-09T01:53:18.846Z,81.30
2023-04-09T01:55:45.994Z,81.60
2023-04-09T01:58:13.911Z,80.80
2023-04-09T02:00:47.344Z,80.50
2023-04-09T02:03:24.829Z,80.60
2023-04-09T02:06:06.032Z,80.90
2023-04-09T02:08:35.405Z,81.20
2023-04-09T02:11:06.714Z,80.70
2023-04-09T02:13:35.011Z,80.70
2023-04-09T02:16:04.299Z,80.50
2023-04-09T02:18:32.601Z,80.50
2023-04-09T02:21:00.802Z,80.70
2023-04-09T02:23:28.113Z,80.80
2023-04-09T02:25:55.398Z,80.70
2023-04-09T02:28:22.542Z,80.60
2023-04-09T02:30:52.159Z,80.20
2023-04-09T02:33:19.522Z,80.20
2023-04-09T02:35:46.760Z,80.10
2023-04-09T02:38:15.892Z,80.30
2023-04-09T02:40:43.341Z,80.40
2023-04-09T02:43:10.771Z,80.90
2023-04-09T02:45:38.520Z,80.40
2023-04-09T02:48:06.101Z,80.20
2023-04-09T02:50:35.692Z,80.80
2023-04-09T02:53:03.450Z,81.10
2023-04-09T02:55:30.652Z,80.80
2023-04-09T02:57:57.827Z,80.80
2023-04-09T03:00:25.022Z,81.00
2023-04-09T03:02:52.800Z,80.90
2023-04-09T03:05:20.955Z,81.00
2023-04-09T03:07:48.629Z,81.10
2023-04-09T03:10:16.051Z,81.00
2023-04-09T03:12:44.588Z,81.10
2023-04-09T03:15:11.867Z,81.10
2023-04-09T03:17:39.618Z,81.10
2023-04-09T03:20:07.737Z,81.00
2023-04-09T03:22:38.569Z,81.10
2023-04-09T03:25:14.942Z,81.00
2023-04-09T03:27:42.419Z,80.40
2023-04-09T03:30:14.616Z,80.40
2023-04-09T03:32:44.885Z,80.70
2023-04-09T03:35:13.834Z,81.00
2023-04-09T03:37:43.347Z,81.20
2023-04-09T03:40:16.860Z,81.30
2023-04-09T03:42:44.477Z,81.10
2023-04-09T03:45:14.453Z,80.70
2023-04-09T03:47:45.585Z,80.60
2023-04-09T03:50:13.218Z,80.90
2023-04-09T03:52:52.869Z,80.90
2023-04-09T03:55:20.357Z,80.90
2023-04-09T03:57:48.878Z,80.80
2023-04-09T04:00:19.204Z,80.90
2023-04-09T04:03:08.777Z,80.70
2023-04-09T04:05:54.556Z,80.90
2023-04-09T04:08:21.778Z,81.20
2023-04-09T04:10:49.048Z,81.00
2023-04-09T04:13:18.243Z,81.10
2023-04-09T04:15:54.976Z,81.20
2023-04-09T04:18:23.912Z,81.20
2023-04-09T04:20:55.925Z,81.20
2023-04-09T04:23:23.241Z,81.30
2023-04-09T04:25:58.102Z,81.20
2023-04-09T04:28:30.829Z,81.30
2023-04-09T04:30:58.049Z,81.30
2023-04-09T04:33:25.890Z,81.30
2023-04-09T04:36:04.842Z,81.20
2023-04-09T04:38:37.190Z,81.40
2023-04-09T04:41:08.377Z,81.50
2023-04-09T04:43:41.345Z,81.40
2023-04-09T04:46:10.603Z,81.50
2023-04-09T04:48:37.835Z,81.50
2023-04-09T04:51:05.248Z,81.40
2023-04-09T04:53:40.595Z,81.30
2023-04-09T04:56:14.807Z,81.40
2023-04-09T04:58:53.358Z,81.40
2023-04-09T05:01:21.613Z,81.40
2023-04-09T05:03:49.126Z,81.50
2023-04-09T05:06:27.972Z,81.50
2023-04-09T05:08:59.057Z,81.60
2023-04-09T05:11:28.798Z,81.60
2023-04-09T05:13:56.546Z,81.60
2023-04-09T05:16:24.189Z,81.00
2023-04-09T05:19:00.436Z,81.70
2023-04-09T05:21:27.801Z,81.20
2023-04-09T05:23:56.904Z,81.50
2023-04-09T05:26:24.188Z,80.50
2023-04-09T05:28:57.769Z,81.20
2023-04-09T05:31:25.495Z,81.30
2023-04-09T05:34:06.374Z,81.10
2023-04-09T05:36:38.399Z,81.30
2023-04-09T05:39:06.211Z,81.30
2023-04-09T05:41:33.594Z,81.00
2023-04-09T05:44:27.810Z,81.10
2023-04-09T05:47:01.898Z,81.50
2023-04-09T05:49:35.156Z,81.10
2023-04-09T05:52:07.413Z,81.20
2023-04-09T05:54:35.310Z,81.30
2023-04-09T05:57:03.523Z,81.30
2023-04-09T05:59:34.001Z,80.70
2023-04-09T06:02:01.418Z,80.50
2023-04-09T06:04:28.845Z,80.90
2023-04-09T06:07:00.050Z,81.10
2023-04-09T06:09:27.895Z,81.40
2023-04-09T06:11:55.655Z,81.00
2023-04-09T06:14:22.978Z,81.30
2023-04-09T06:16:50.188Z,81.00
2023-04-09T06:19:17.720Z,81.00
2023-04-09T06:21:44.963Z,81.10
2023-04-09T06:24:12.187Z,80.90
2023-04-09T06:26:39.363Z,81.10
2023-04-09T06:29:06.900Z,80.80
2023-04-09T06:31:34.454Z,80.90
2023-04-09T06:34:01.814Z,80.70
2023-04-09T06:36:30.393Z,80.40
2023-04-09T06:38:59.066Z,80.90
2023-04-09T06:41:29.071Z,80.90
2023-04-09T06:43:56.277Z,80.70
2023-04-09T06:46:23.601Z,80.40
2023-04-09T06:48:50.869Z,80.60
2023-04-09T06:51:18.148Z,80.20
2023-04-09T06:53:47.942Z,80.60
2023-04-09T06:56:15.674Z,80.40
2023-04-09T06:58:42.968Z,79.90
2023-04-09T07:01:10.355Z,80.00
2023-04-09T07:03:37.918Z,79.30
2023-04-09T07:06:05.474Z,79.30
2023-04-09T07:08:32.810Z,80.30
2023-04-09T07:11:00.038Z,80.50
2023-04-09T07:15:59.335Z,80.30
2023-04-09T07:18:27.088Z,80.30
2023-04-09T07:20:55.186Z,80.20
2023-04-09T07:23:22.919Z,80.00
2023-04-09T07:25:50.128Z,80.30
2023-04-09T07:28:17.439Z,80.40
2023-04-09T07:30:46.192Z,80.30
2023-04-09T07:33:13.481Z,81.10
2023-04-09T07:35:40.748Z,80.20
2023-04-09T07:38:07.935Z,79.20
2023-04-09T07:40:36.794Z,78.70
2023-04-09T07:43:05.053Z,78.80
2023-04-09T07:45:32.215Z,79.40
2023-04-09T07:47:59.486Z,79.20
2023-04-09T07:50:27.077Z,79.90
2023-04-09T07:52:54.368Z,79.50
2023-04-09T07:55:21.659Z,79.10
2023-04-09T07:57:49.018Z,79.60
2023-04-09T08:00:16.927Z,79.80
2023-04-09T08:02:44.662Z,79.80
2023-04-09T08:05:12.215Z,79.60
2023-04-09T08:07:39.689Z,79.50
2023-04-09T08:10:07.551Z,78.90
2023-04-09T08:12:34.749Z,78.90
2023-04-09T08:15:03.739Z,79.20
2023-04-09T08:17:31.173Z,79.40
2023-04-09T08:19:58.453Z,78.90
2023-04-09T08:22:25.841Z,78.10
2023-04-09T08:24:53.223Z,77.20
2023-04-09T08:27:21.402Z,77.60
2023-04-09T08:29:48.647Z,78.60
2023-04-09T08:32:16.315Z,78.20
2023-04-09T08:34:43.638Z,78.80
2023-04-09T08:37:10.829Z,79.00
2023-04-09T08:39:37.986Z,78.70
2023-04-09T08:42:07.417Z,79.00
2023-04-09T08:44:34.679Z,78.70
2023-04-09T08:47:02.796Z,78.80
2023-04-09T08:49:30.123Z,78.50
2023-04-09T08:51:57.323Z,78.60
2023-04-09T08:54:26.764Z,77.70
2023-04-09T08:56:54.005Z,77.70
2023-04-09T08:59:21.192Z,78.10
2023-04-09T09:01:54.037Z,77.70
2023-04-09T09:04:21.533Z,76.80
2023-04-09T09:06:48.894Z,76.70
2023-04-09T09:09:17.280Z,76.70
2023-04-09T09:11:45.778Z,77.10
2023-04-09T09:14:15.431Z,77.10
2023-04-09T09:16:56.147Z,77.10
2023-04-09T09:19:26.717Z,76.70
2023-04-09T09:21:58.619Z,75.90
2023-04-09T09:24:26.151Z,75.30
2023-04-09T09:26:59.907Z,74.60
2023-04-09T09:29:28.581Z,74.20
2023-04-09T09:31:56.597Z,72.40
2023-04-09T09:34:25.330Z,71.10
2023-04-09T09:36:52.613Z,71.30
2023-04-09T09:39:21.935Z,71.90
2023-04-09T09:42:07.785Z,71.80
2023-04-09T09:44:35.174Z,71.00
2023-04-09T09:47:04.232Z,71.50
2023-04-09T09:49:31.518Z,71.80
2023-04-09T09:52:00.577Z,71.10
2023-04-09T09:54:34.358Z,71.00
2023-04-09T09:57:07.481Z,70.30
2023-04-09T09:59:38.854Z,68.30
2023-04-09T10:02:09.103Z,67.10
2023-04-09T10:04:38.072Z,67.10
2023-04-09T10:07:06.981Z,66.20
2023-04-09T10:09:37.639Z,66.10
2023-04-09T10:12:08.841Z,66.90
2023-04-09T10:14:37.326Z,67.10
2023-04-09T10:17:04.663Z,66.70
2023-04-09T10:19:41.386Z,65.70
2023-04-09T10:22:16.150Z,65.70
2023-04-09T10:24:44.090Z,64.30
2023-04-09T10:27:18.348Z,64.70
2023-04-09T10:29:49.720Z,64.60
2023-04-09T10:32:21.795Z,64.60
2023-04-09T10:34:50.670Z,64.10
2023-04-09T10:37:24.096Z,63.60
2023-04-09T10:39:52.552Z,60.00
2023-04-09T10:42:32.606Z,55.20
2023-04-09T10:45:10.530Z,54.30
2023-04-09T10:47:40.015Z,54.10
2023-04-09T10:50:16.637Z,51.30
2023-04-09T10:52:44.469Z,49.80
2023-04-09T10:55:30.669Z,47.70
2023-04-09T10:57:58.756Z,46.40
2023-04-09T11:00:25.987Z,41.40
2023-04-09T11:03:13.415Z,36.00
2023-04-09T11:05:42.823Z,35.20
2023-04-09T11:08:11.601Z,35.70
2023-04-09T11:10:44.604Z,37.20
2023-04-09T11:13:13.631Z,37.60
2023-04-09T11:15:41.738Z,38.80
2023-04-09T11:18:13.922Z,39.00
2023-04-09T11:20:41.218Z,38.80
2023-04-09T11:30:34.361Z,39.00
2023-04-09T11:50:22.160Z,29.50
2023-04-09T11:52:49.858Z,24.00
2023-04-09T11:55:27.712Z,23.80
2023-04-09T11:58:01.049Z,24.10
2023-04-09T12:00:29.216Z,23.50
2023-04-09T12:03:03.127Z,23.00
2023-04-09T12:05:35.139Z,23.40
2023-04-09T12:08:07.540Z,23.20
2023-04-09T12:10:38.242Z,22.40
2023-04-09T12:13:11.843Z,22.70
2023-04-09T12:15:41.785Z,24.10
2023-04-09T12:18:10.546Z,23.40
2023-04-09T12:20:44.132Z,23.10
2023-04-09T12:23:12.370Z,22.90
2023-04-09T12:25:44.146Z,22.80
2023-04-09T12:28:15.457Z,23.80
2023-04-09T12:30:43.257Z,23.40
2023-04-09T12:33:11.373Z,23.70
2023-04-09T12:35:38.974Z,23.30
2023-04-09T12:38:06.306Z,23.20
2023-04-09T12:40:34.998Z,23.90
2023-04-09T12:43:02.970Z,23.60
2023-04-09T12:45:30.959Z,23.40
2023-04-09T12:47:58.366Z,24.20
2023-04-09T12:50:25.873Z,25.10
2023-04-09T12:52:53.106Z,26.70
2023-04-09T12:55:20.328Z,27.00
2023-04-09T12:57:50.758Z,26.40
2023-04-09T13:00:18.135Z,26.10
2023-04-09T13:02:45.648Z,26.10
2023-04-09T13:05:13.066Z,26.00
2023-04-09T13:07:42.349Z,26.00
2023-04-09T13:10:10.623Z,25.00
2023-04-09T13:12:37.801Z,25.00
2023-04-09T13:15:05.733Z,24.50
2023-04-09T13:17:32.978Z,24.60
2023-04-09T13:20:00.252Z,25.20
2023-04-09T13:22:27.446Z,25.90
2023-04-09T13:24:54.601Z,27.20
2023-04-09T13:27:21.999Z,27.70
2023-04-09T13:29:49.174Z,28.30
2023-04-09T13:32:18.206Z,29.40
2023-04-09T13:34:46.032Z,29.40
2023-04-09T13:37:13.353Z,29.90
2023-04-09T13:39:40.719Z,31.50
2023-04-09T13:42:13.531Z,34.30
2023-04-09T13:44:44.593Z,35.70
2023-04-09T13:47:13.133Z,34.30
2023-04-09T13:49:41.199Z,31.90
2023-04-09T13:52:09.170Z,32.40
2023-04-09T13:54:36.910Z,34.40
2023-04-09T13:57:04.164Z,34.10
2023-04-09T13:59:31.422Z,33.20
2023-04-09T14:01:58.778Z,33.50
2023-04-09T14:04:26.080Z,35.90
2023-04-09T14:06:53.288Z,37.10
2023-04-09T14:09:20.546Z,38.90
2023-04-09T14:11:47.814Z,38.20
2023-04-09T14:14:15.432Z,36.30
2023-04-09T14:16:42.704Z,35.80
2023-04-09T14:19:10.374Z,35.80
2023-04-09T14:21:37.622Z,35.30
2023-04-09T14:24:04.861Z,35.50
2023-04-09T14:26:32.029Z,36.00
2023-04-09T14:28:59.292Z,37.40
2023-04-09T14:31:26.662Z,37.60
2023-04-09T14:33:53.866Z,37.30
2023-04-09T14:36:21.325Z,36.90
2023-04-09T14:38:49.088Z,37.70
2023-04-09T14:41:17.033Z,38.00
2023-04-09T14:43:44.250Z,37.50
2023-04-09T14:46:12.102Z,37.50
2023-04-09T14:48:40.217Z,36.80
2023-04-09T14:51:10.058Z,38.60
2023-04-09T14:53:37.908Z,38.10
2023-04-09T14:56:05.550Z,39.90
2023-04-09T14:58:32.758Z,40.50
2023-04-09T15:00:59.963Z,40.50
2023-04-09T15:03:27.365Z,39.40
2023-04-09T15:05:54.887Z,39.20
2023-04-09T15:08:22.307Z,38.20
2023-04-09T15:10:49.743Z,37.90
2023-04-09T15:13:16.979Z,38.00
2023-04-09T15:15:44.849Z,36.70
2023-04-09T15:18:12.110Z,35.70
2023-04-09T15:20:40.084Z,36.10
2023-04-09T15:23:07.302Z,36.80
2023-04-09T15:25:34.586Z,38.20
2023-04-09T15:28:03.208Z,39.00
2023-04-09T15:30:30.748Z,40.20
2023-04-09T15:32:58.180Z,40.50
2023-04-09T15:35:29.005Z,41.50
2023-04-09T15:37:56.899Z,42.20
2023-04-09T15:40:24.097Z,42.50
2023-04-09T15:42:51.309Z,43.00
2023-04-09T15:45:18.548Z,43.40
2023-04-09T15:47:46.470Z,43.30
2023-04-09T15:50:14.586Z,44.00
2023-04-09T15:52:41.882Z,43.70
2023-04-09T15:55:09.475Z,42.90
2023-04-09T15:57:38.272Z,44.10
2023-04-09T16:00:08.365Z,43.20
2023-04-09T16:02:38.579Z,43.50
2023-04-09T16:05:07.114Z,44.30
2023-04-09T16:07:34.584Z,45.10
2023-04-09T16:10:02.617Z,43.80
2023-04-09T16:12:29.780Z,43.50
2023-04-09T16:14:56.988Z,43.40
2023-04-09T16:17:24.301Z,43.10
2023-04-09T16:19:51.562Z,42.20
2023-04-09T16:22:18.852Z,43.00
2023-04-09T16:24:46.135Z,43.50
2023-04-09T16:27:14.370Z,42.70
2023-04-09T16:29:41.562Z,42.50
2023-04-09T16:32:08.838Z,42.60
2023-04-09T16:34:36.135Z,43.00
2023-04-09T16:37:03.567Z,42.90
2023-04-09T16:39:30.858Z,43.20
2023-04-09T16:41:58.301Z,43.90
2023-04-09T16:44:25.856Z,44.10
2023-04-09T16:46:53.125Z,44.70
2023-04-09T16:49:20.366Z,44.60
2023-04-09T16:51:47.827Z,45.50
2023-04-09T16:54:15.307Z,45.50
2023-04-09T16:56:42.567Z,45.80
2023-04-09T16:59:11.926Z,47.30
2023-04-09T17:01:39.216Z,48.60
2023-04-09T17:04:06.738Z,49.00
2023-04-09T17:06:33.965Z,49.40
2023-04-09T17:09:01.447Z,48.90
2023-04-09T17:11:28.711Z,52.30
2023-04-09T17:13:56.195Z,52.60
2023-04-09T17:16:23.637Z,53.20
2023-04-09T17:18:51.329Z,53.60
2023-04-09T17:21:18.680Z,53.70
2023-04-09T17:23:45.875Z,54.30
2023-04-09T17:26:13.099Z,55.20
2023-04-09T17:28:42.732Z,54.70
2023-04-09T17:31:14.243Z,55.50
2023-04-09T17:33:44.563Z,55.90
2023-04-09T17:36:11.855Z,56.00
2023-04-09T17:38:39.032Z,56.90
2023-04-09T17:41:07.627Z,57.80
2023-04-09T17:43:35.034Z,58.70
2023-04-09T17:46:02.863Z,58.70
2023-04-09T17:48:31.959Z,59.10
2023-04-09T17:50:59.408Z,59.50
2023-04-09T17:53:27.062Z,58.90
2023-04-09T17:55:54.239Z,59.40
2023-04-09T17:58:21.478Z,59.70
2023-04-09T18:00:48.846Z,59.80
2023-04-09T18:03:16.534Z,60.60
2023-04-09T18:05:44.360Z,60.80
2023-04-09T18:08:12.326Z,61.50
2023-04-09T18:10:39.538Z,62.40
2023-04-09T18:13:06.857Z,63.00
2023-04-09T18:15:34.270Z,63.30
2023-04-09T18:18:01.491Z,63.60
2023-04-09T18:20:28.840Z,63.80
2023-04-09T18:22:56.185Z,64.10
2023-04-09T18:25:23.564Z,64.40
2023-04-09T18:27:51.339Z,64.80
2023-04-09T18:30:18.832Z,65.20
2023-04-09T18:32:48.209Z,65.50
2023-04-09T18:35:17.391Z,65.50
2023-04-09T18:37:44.923Z,65.90
2023-04-09T18:40:13.758Z,66.30
2023-04-09T18:42:41.028Z,66.00
2023-04-09T18:45:08.841Z,66.60
2023-04-09T18:47:37.143Z,66.50
2023-04-09T18:50:04.568Z,66.70
2023-04-09T18:52:32.245Z,66.30
2023-04-09T18:54:59.474Z,66.20
2023-04-09T18:57:27.208Z,66.50
2023-04-09T18:59:54.414Z,66.40
2023-04-09T19:02:21.668Z,67.60
2023-04-09T19:04:49.013Z,66.70
2023-04-09T19:07:16.997Z,67.10
2023-04-09T19:09:44.532Z,67.20
2023-04-09T19:12:11.872Z,67.50
2023-04-09T19:14:40.356Z,67.70
2023-04-09T19:17:07.779Z,67.90
2023-04-09T19:19:35.075Z,68.00
2023-04-09T19:22:02.320Z,68.30
2023-04-09T19:24:29.542Z,68.30
2023-04-09T19:26:57.250Z,68.30
2023-04-09T19:29:24.598Z,68.20
2023-04-09T19:31:51.862Z,67.80
2023-04-09T19:34:19.158Z,67.80
2023-04-09T19:36:46.563Z,68.10
2023-04-09T19:39:13.783Z,68.10
2023-04-09T19:41:40.961Z,68.30
2023-04-09T19:44:09.077Z,68.10
2023-04-09T19:46:36.293Z,68.20
2023-04-09T19:49:03.523Z,68.30
2023-04-09T19:51:30.788Z,68.00
2023-04-09T19:53:57.954Z,68.20
2023-04-09T19:56:25.235Z,68.10
2023-04-09T19:58:52.767Z,68.20
2023-04-09T20:01:20.205Z,68.30
2023-04-09T20:03:48.158Z,68.50
2023-04-09T20:06:15.777Z,68.40
2023-04-09T20:08:43.004Z,68.40
2023-04-09T20:11:17.003Z,67.80
2023-04-09T20:13:44.251Z,68.00
2023-04-09T20:16:11.566Z,67.60
2023-04-09T20:18:38.782Z,66.90
2023-04-09T20:21:07.483Z,67.00
2023-04-09T20:23:34.807Z,66.60
2023-04-09T20:26:02.682Z,66.60
2023-04-09T20:28:29.888Z,66.60
2023-04-09T20:30:57.648Z,66.60
2023-04-09T20:33:24.840Z,67.00
2023-04-09T20:35:53.074Z,66.70
2023-04-09T20:38:21.576Z,66.10
2023-04-09T20:40:48.812Z,66.20
2023-04-09T20:43:16.513Z,66.00
2023-04-09T20:45:43.784Z,66.10
2023-04-09T20:48:11.871Z,67.20
2023-04-09T20:50:39.156Z,66.60
2023-04-09T20:53:06.536Z,66.70
2023-04-09T20:55:33.821Z,66.70
2023-04-09T20:58:01.862Z,66.80
2023-04-09T21:00:29.017Z,67.30
2023-04-09T21:02:56.344Z,67.40
2023-04-09T21:05:24.475Z,67.40
2023-04-09T21:07:53.014Z,67.40
2023-04-09T21:10:20.885Z,67.90
2023-04-09T21:12:48.215Z,68.10
2023-04-09T21:15:15.798Z,68.20
2023-04-09T21:17:43.005Z,68.30
2023-04-09T21:20:11.197Z,68.20
2023-04-09T21:22:38.422Z,68.10
2023-04-09T21:25:06.313Z,68.10
2023-04-09T21:27:33.557Z,68.20
2023-04-09T21:30:00.790Z,68.10
2023-04-09T21:32:28.064Z,68.30
2023-04-09T21:34:55.422Z,67.90
2023-04-09T21:37:22.703Z,67.70
2023-04-09T21:39:49.908Z,68.30
2023-04-09T21:42:17.167Z,68.00
2023-04-09T21:44:44.354Z,68.00
2023-04-09T21:47:12.132Z,68.50
2023-04-09T21:49:40.425Z,69.00
2023-04-09T21:52:14.329Z,68.60
2023-04-09T21:54:42.720Z,69.30
2023-04-09T21:57:11.049Z,69.10
2023-04-09T21:59:38.406Z,69.30
2023-04-09T22:02:05.760Z,69.50
2023-04-09T22:04:35.143Z,69.60
2023-04-09T22:07:03.362Z,69.10
2023-04-09T22:09:31.549Z,69.00
2023-04-09T22:11:59.511Z,69.10
2023-04-09T22:14:29.631Z,69.10
2023-04-09T22:16:58.198Z,69.00
2023-04-09T22:19:26.110Z,69.20
2023-04-09T22:21:53.983Z,69.10
2023-04-09T22:24:26.836Z,69.30
2023-04-09T22:26:54.253Z,69.20
2023-04-09T22:29:21.778Z,69.30
2023-04-09T22:31:48.936Z,69.20
2023-04-09T22:34:21.325Z,68.50
2023-04-09T22:36:49.578Z,69.30
2023-04-09T22:39:17.103Z,69.00
2023-04-09T22:41:44.384Z,69.30
2023-04-09T22:44:11.617Z,69.30
2023-04-09T22:46:38.939Z,69.00
2023-04-09T22:49:06.572Z,69.10
2023-04-09T22:51:36.899Z,68.60
2023-04-09T22:54:04.441Z,68.50
2023-04-09T22:56:33.487Z,68.20
2023-04-09T22:59:00.801Z,69.00
2023-04-09T23:01:28.374Z,68.70
2023-04-09T23:03:55.901Z,69.10
2023-04-09T23:06:24.989Z,68.60
2023-04-09T23:08:52.367Z,68.80
2023-04-09T23:11:20.949Z,68.60
2023-04-09T23:13:48.139Z,68.50
2023-04-09T23:16:15.407Z,68.70
2023-04-09T23:18:42.703Z,68.00
2023-04-09T23:21:10.828Z,68.10
2023-04-09T23:23:38.966Z,67.00
2023-04-09T23:26:06.657Z,66.60
2023-04-09T23:28:33.879Z,66.60
2023-04-09T23:31:01.160Z,65.50
2023-04-09T23:33:28.500Z,64.80
2023-04-09T23:35:55.872Z,65.00
2023-04-09T23:38:23.378Z,65.30
2023-04-09T23:40:50.747Z,64.40
2023-04-09T23:43:17.959Z,65.00
2023-04-09T23:45:45.244Z,63.70
2023-04-09T23:48:12.841Z,64.30
2023-04-09T23:50:41.500Z,63.80
2023-04-09T23:53:08.993Z,64.40
2023-04-09T23:55:41.309Z,64.50
2023-04-09T23:58:09.414Z,63.60
